sensor_id;sensor_type;location;lat;lon;timestamp;P1;durP1;ratioP1;P2;durP2;ratioP2
24435;SDS011;12616;52.470;13.436;2023-07-16T00:01:18;5.57;;;4.97;;
24435;SDS011;12616;52.470;13.436;2023-07-16T00:03:45;5.97;;;4.70;;
24435;SDS011;12616;52.470;13.436;2023-07-16T00:06:13;4.57;;;4.17;;
24435;SDS011;12616;52.470;13.436;2023-07-16T00:08:40;4.43;;;4.03;;
24435;SDS011;12616;52.470;13.436;2023-07-16T00:11:07;4.43;;;4.03;;
24435;SDS011;12616;52.470;13.436;2023-07-16T00:13:34;6.50;;;4.40;;
24435;SDS011;12616;52.470;13.436;2023-07-16T00:16:01;6.80;;;4.43;;
24435;SDS011;12616;52.470;13.436;2023-07-16T00:18:28;6.00;;;4.23;;
24435;SDS011;12616;52.470;13.436;2023-07-16T00:20:55;5.00;;;4.50;;
24435;SDS011;12616;52.470;13.436;2023-07-16T00:23:24;7.33;;;4.40;;
24435;SDS011;12616;52.470;13.436;2023-07-16T00:25:51;5.60;;;4.70;;
24435;SDS011;12616;52.470;13.436;2023-07-16T00:28:18;4.97;;;4.40;;
24435;SDS011;12616;52.470;13.436;2023-07-16T00:30:45;4.33;;;3.90;;
24435;SDS011;12616;52.470;13.436;2023-07-16T00:33:11;4.80;;;4.40;;
24435;SDS011;12616;52.470;13.436;2023-07-16T00:35:39;6.10;;;5.47;;
24435;SDS011;12616;52.470;13.436;2023-07-16T00:38:12;5.13;;;4.73;;
24435;SDS011;12616;52.470;13.436;2023-07-16T00:40:40;4.97;;;4.43;;
24435;SDS011;12616;52.470;13.436;2023-07-16T00:43:07;5.70;;;5.20;;
24435;SDS011;12616;52.470;13.436;2023-07-16T00:45:34;7.17;;;6.50;;
24435;SDS011;12616;52.470;13.436;2023-07-16T00:48:01;6.87;;;6.20;;
24435;SDS011;12616;52.470;13.436;2023-07-16T00:50:28;5.73;;;5.20;;
24435;SDS011;12616;52.470;13.436;2023-07-16T00:52:59;6.30;;;5.33;;
24435;SDS011;12616;52.470;13.436;2023-07-16T00:55:26;4.97;;;4.57;;
24435;SDS011;12616;52.470;13.436;2023-07-16T00:57:56;4.97;;;4.50;;
24435;SDS011;12616;52.470;13.436;2023-07-16T01:00:28;6.03;;;5.53;;
24435;SDS011;12616;52.470;13.436;2023-07-16T01:02:54;5.67;;;5.07;;
24435;SDS011;12616;52.470;13.436;2023-07-16T01:05:21;6.50;;;5.33;;
24435;SDS011;12616;52.470;13.436;2023-07-16T01:07:52;5.93;;;5.20;;
24435;SDS011;12616;52.470;13.436;2023-07-16T01:10:23;5.23;;;4.83;;
24435;SDS011;12616;52.470;13.436;2023-07-16T01:12:53;5.87;;;4.33;;
24435;SDS011;12616;52.470;13.436;2023-07-16T01:15:23;13.80;;;5.27;;
24435;SDS011;12616;52.470;13.436;2023-07-16T01:17:50;6.50;;;5.70;;
24435;SDS011;12616;52.470;13.436;2023-07-16T01:20:17;4.97;;;4.60;;
24435;SDS011;12616;52.470;13.436;2023-07-16T01:25:47;6.50;;;5.93;;
24435;SDS011;12616;52.470;13.436;2023-07-16T01:28:52;6.77;;;6.20;;
24435;SDS011;12616;52.470;13.436;2023-07-16T01:31:32;7.60;;;6.33;;
24435;SDS011;12616;52.470;13.436;2023-07-16T01:34:00;8.20;;;7.47;;
24435;SDS011;12616;52.470;13.436;2023-07-16T01:36:31;6.43;;;5.93;;
24435;SDS011;12616;52.470;13.436;2023-07-16T01:38:58;6.63;;;6.03;;
24435;SDS011;12616;52.470;13.436;2023-07-16T01:41:26;7.30;;;6.70;;
24435;SDS011;12616;52.470;13.436;2023-07-16T01:43:52;7.30;;;6.70;;
24435;SDS011;12616;52.470;13.436;2023-07-16T01:46:21;7.43;;;6.83;;
24435;SDS011;12616;52.470;13.436;2023-07-16T01:48:47;7.83;;;6.67;;
24435;SDS011;12616;52.470;13.436;2023-07-16T01:51:15;7.57;;;6.43;;
24435;SDS011;12616;52.470;13.436;2023-07-16T01:53:41;6.43;;;5.93;;
24435;SDS011;12616;52.470;13.436;2023-07-16T01:56:08;6.30;;;5.80;;
24435;SDS011;12616;52.470;13.436;2023-07-16T01:58:35;7.17;;;6.37;;
24435;SDS011;12616;52.470;13.436;2023-07-16T02:01:02;5.63;;;5.13;;
24435;SDS011;12616;52.470;13.436;2023-07-16T02:03:30;7.40;;;5.50;;
24435;SDS011;12616;52.470;13.436;2023-07-16T02:05:57;8.80;;;5.40;;
24435;SDS011;12616;52.470;13.436;2023-07-16T02:08:24;4.93;;;4.53;;
24435;SDS011;12616;52.470;13.436;2023-07-16T02:10:51;5.00;;;4.40;;
24435;SDS011;12616;52.470;13.436;2023-07-16T02:13:18;6.53;;;4.47;;
24435;SDS011;12616;52.470;13.436;2023-07-16T02:15:45;5.80;;;4.47;;
24435;SDS011;12616;52.470;13.436;2023-07-16T02:18:13;4.80;;;4.00;;
24435;SDS011;12616;52.470;13.436;2023-07-16T02:20:41;5.60;;;5.00;;
24435;SDS011;12616;52.470;13.436;2023-07-16T02:23:10;4.23;;;3.93;;
24435;SDS011;12616;52.470;13.436;2023-07-16T02:25:37;4.13;;;3.60;;
24435;SDS011;12616;52.470;13.436;2023-07-16T02:28:03;5.20;;;4.63;;
24435;SDS011;12616;52.470;13.436;2023-07-16T02:30:31;4.43;;;4.03;;
24435;SDS011;12616;52.470;13.436;2023-07-16T02:32:58;8.87;;;5.17;;
24435;SDS011;12616;52.470;13.436;2023-07-16T02:35:25;7.10;;;4.30;;
24435;SDS011;12616;52.470;13.436;2023-07-16T02:37:53;5.00;;;4.43;;
24435;SDS011;12616;52.470;13.436;2023-07-16T02:40:20;7.53;;;4.50;;
24435;SDS011;12616;52.470;13.436;2023-07-16T02:42:47;3.83;;;3.53;;
24435;SDS011;12616;52.470;13.436;2023-07-16T02:45:14;4.70;;;4.20;;
24435;SDS011;12616;52.470;13.436;2023-07-16T02:47:41;4.57;;;4.17;;
24435;SDS011;12616;52.470;13.436;2023-07-16T02:50:08;6.20;;;4.40;;
24435;SDS011;12616;52.470;13.436;2023-07-16T02:52:36;5.60;;;5.03;;
24435;SDS011;12616;52.470;13.436;2023-07-16T02:55:05;7.43;;;5.60;;
24435;SDS011;12616;52.470;13.436;2023-07-16T02:57:32;6.73;;;4.73;;
24435;SDS011;12616;52.470;13.436;2023-07-16T02:59:59;5.57;;;4.70;;
24435;SDS011;12616;52.470;13.436;2023-07-16T03:02:26;4.73;;;4.33;;
24435;SDS011;12616;52.470;13.436;2023-07-16T03:04:53;4.73;;;4.30;;
24435;SDS011;12616;52.470;13.436;2023-07-16T03:07:20;7.07;;;5.10;;
24435;SDS011;12616;52.470;13.436;2023-07-16T03:09:46;8.20;;;4.73;;
24435;SDS011;12616;52.470;13.436;2023-07-16T03:12:15;6.13;;;5.00;;
24435;SDS011;12616;52.470;13.436;2023-07-16T03:14:41;6.00;;;5.40;;
24435;SDS011;12616;52.470;13.436;2023-07-16T03:17:08;5.23;;;4.70;;
24435;SDS011;12616;52.470;13.436;2023-07-16T03:19:35;4.63;;;4.20;;
24435;SDS011;12616;52.470;13.436;2023-07-16T03:22:03;4.30;;;3.90;;
24435;SDS011;12616;52.470;13.436;2023-07-16T03:24:30;5.30;;;4.90;;
24435;SDS011;12616;52.470;13.436;2023-07-16T03:26:57;4.67;;;4.37;;
24435;SDS011;12616;52.470;13.436;2023-07-16T03:29:25;4.20;;;3.80;;
24435;SDS011;12616;52.470;13.436;2023-07-16T03:31:52;4.20;;;3.90;;
24435;SDS011;12616;52.470;13.436;2023-07-16T03:34:18;5.03;;;4.53;;
24435;SDS011;12616;52.470;13.436;2023-07-16T03:36:45;4.63;;;4.17;;
24435;SDS011;12616;52.470;13.436;2023-07-16T03:39:12;4.07;;;3.77;;
24435;SDS011;12616;52.470;13.436;2023-07-16T03:41:39;4.03;;;3.73;;
24435;SDS011;12616;52.470;13.436;2023-07-16T03:44:06;3.27;;;3.07;;
24435;SDS011;12616;52.470;13.436;2023-07-16T03:46:34;4.33;;;3.93;;
24435;SDS011;12616;52.470;13.436;2023-07-16T03:49:01;3.50;;;3.20;;
24435;SDS011;12616;52.470;13.436;2023-07-16T03:51:28;3.20;;;3.00;;
24435;SDS011;12616;52.470;13.436;2023-07-16T03:53:55;3.70;;;3.40;;
24435;SDS011;12616;52.470;13.436;2023-07-16T03:56:22;3.73;;;3.43;;
24435;SDS011;12616;52.470;13.436;2023-07-16T03:58:49;5.70;;;4.07;;
24435;SDS011;12616;52.470;13.436;2023-07-16T04:01:16;4.20;;;3.10;;
24435;SDS011;12616;52.470;13.436;2023-07-16T04:03:45;4.50;;;4.10;;
24435;SDS011;12616;52.470;13.436;2023-07-16T04:06:12;4.00;;;3.70;;
24435;SDS011;12616;52.470;13.436;2023-07-16T04:08:39;6.47;;;3.40;;
24435;SDS011;12616;52.470;13.436;2023-07-16T04:11:06;4.80;;;4.23;;
24435;SDS011;12616;52.470;13.436;2023-07-16T04:13:33;4.93;;;4.30;;
24435;SDS011;12616;52.470;13.436;2023-07-16T04:16:00;5.03;;;4.33;;
24435;SDS011;12616;52.470;13.436;2023-07-16T04:18:27;5.50;;;3.80;;
24435;SDS011;12616;52.470;13.436;2023-07-16T04:20:55;5.27;;;4.53;;
24435;SDS011;12616;52.470;13.436;2023-07-16T04:23:22;4.20;;;3.87;;
24435;SDS011;12616;52.470;13.436;2023-07-16T04:25:51;4.20;;;3.90;;
24435;SDS011;12616;52.470;13.436;2023-07-16T04:28:18;4.43;;;4.03;;
24435;SDS011;12616;52.470;13.436;2023-07-16T04:30:45;4.83;;;4.33;;
24435;SDS011;12616;52.470;13.436;2023-07-16T04:33:12;4.53;;;4.13;;
24435;SDS011;12616;52.470;13.436;2023-07-16T04:35:39;8.57;;;5.00;;
24435;SDS011;12616;52.470;13.436;2023-07-16T04:38:07;5.20;;;4.73;;
24435;SDS011;12616;52.470;13.436;2023-07-16T04:40:34;4.47;;;4.10;;
24435;SDS011;12616;52.470;13.436;2023-07-16T04:43:01;4.90;;;4.40;;
24435;SDS011;12616;52.470;13.436;2023-07-16T04:45:27;4.27;;;3.73;;
24435;SDS011;12616;52.470;13.436;2023-07-16T04:47:54;5.73;;;5.17;;
24435;SDS011;12616;52.470;13.436;2023-07-16T04:50:21;6.00;;;5.40;;
24435;SDS011;12616;52.470;13.436;2023-07-16T04:52:48;4.90;;;4.47;;
24435;SDS011;12616;52.470;13.436;2023-07-16T04:55:17;5.33;;;4.17;;
24435;SDS011;12616;52.470;13.436;2023-07-16T04:57:43;4.40;;;4.00;;
24435;SDS011;12616;52.470;13.436;2023-07-16T05:00:10;5.77;;;5.17;;
24435;SDS011;12616;52.470;13.436;2023-07-16T05:02:38;6.00;;;5.40;;
24435;SDS011;12616;52.470;13.436;2023-07-16T05:05:05;4.77;;;4.37;;
24435;SDS011;12616;52.470;13.436;2023-07-16T05:07:32;8.00;;;5.03;;
24435;SDS011;12616;52.470;13.436;2023-07-16T05:09:59;5.20;;;4.80;;
24435;SDS011;12616;52.470;13.436;2023-07-16T05:12:27;5.93;;;4.93;;
24435;SDS011;12616;52.470;13.436;2023-07-16T05:14:54;5.33;;;4.70;;
24435;SDS011;12616;52.470;13.436;2023-07-16T05:17:21;5.27;;;4.33;;
24435;SDS011;12616;52.470;13.436;2023-07-16T05:19:48;5.10;;;4.70;;
24435;SDS011;12616;52.470;13.436;2023-07-16T05:22:15;5.43;;;5.03;;
24435;SDS011;12616;52.470;13.436;2023-07-16T05:24:42;5.87;;;4.87;;
24435;SDS011;12616;52.470;13.436;2023-07-16T05:27:09;5.03;;;4.67;;
24435;SDS011;12616;52.470;13.436;2023-07-16T05:29:38;4.37;;;4.07;;
24435;SDS011;12616;52.470;13.436;2023-07-16T05:32:05;5.50;;;5.00;;
24435;SDS011;12616;52.470;13.436;2023-07-16T05:34:32;5.93;;;5.40;;
24435;SDS011;12616;52.470;13.436;2023-07-16T05:36:59;5.23;;;4.60;;
24435;SDS011;12616;52.470;13.436;2023-07-16T05:39:26;4.73;;;4.27;;
24435;SDS011;12616;52.470;13.436;2023-07-16T05:41:52;4.90;;;4.40;;
24435;SDS011;12616;52.470;13.436;2023-07-16T05:44:19;5.80;;;4.43;;
24435;SDS011;12616;52.470;13.436;2023-07-16T05:46:47;4.93;;;4.43;;
24435;SDS011;12616;52.470;13.436;2023-07-16T05:49:14;4.67;;;4.37;;
24435;SDS011;12616;52.470;13.436;2023-07-16T05:51:42;5.10;;;3.77;;
24435;SDS011;12616;52.470;13.436;2023-07-16T05:54:09;5.50;;;4.53;;
24435;SDS011;12616;52.470;13.436;2023-07-16T05:56:35;4.63;;;4.23;;
24435;SDS011;12616;52.470;13.436;2023-07-16T05:59:02;5.80;;;4.50;;
24435;SDS011;12616;52.470;13.436;2023-07-16T06:01:29;4.93;;;4.50;;
24435;SDS011;12616;52.470;13.436;2023-07-16T06:03:58;4.30;;;3.90;;
24435;SDS011;12616;52.470;13.436;2023-07-16T06:06:26;4.17;;;3.77;;
24435;SDS011;12616;52.470;13.436;2023-07-16T06:08:54;4.57;;;4.17;;
24435;SDS011;12616;52.470;13.436;2023-07-16T06:11:21;6.10;;;4.10;;
24435;SDS011;12616;52.470;13.436;2023-07-16T06:13:48;6.07;;;4.83;;
24435;SDS011;12616;52.470;13.436;2023-07-16T06:16:15;4.30;;;3.90;;
24435;SDS011;12616;52.470;13.436;2023-07-16T06:18:41;5.13;;;4.67;;
24435;SDS011;12616;52.470;13.436;2023-07-16T06:21:10;5.73;;;3.90;;
24435;SDS011;12616;52.470;13.436;2023-07-16T06:23:37;5.03;;;4.47;;
24435;SDS011;12616;52.470;13.436;2023-07-16T06:26:04;5.03;;;4.67;;
24435;SDS011;12616;52.470;13.436;2023-07-16T06:28:31;4.60;;;4.07;;
24435;SDS011;12616;52.470;13.436;2023-07-16T06:30:58;8.67;;;5.27;;
24435;SDS011;12616;52.470;13.436;2023-07-16T06:33:25;4.50;;;4.10;;
24435;SDS011;12616;52.470;13.436;2023-07-16T06:35:53;3.80;;;3.50;;
24435;SDS011;12616;52.470;13.436;2023-07-16T06:38:21;6.33;;;4.87;;
24435;SDS011;12616;52.470;13.436;2023-07-16T06:40:48;5.77;;;4.37;;
24435;SDS011;12616;52.470;13.436;2023-07-16T06:43:16;4.20;;;3.80;;
24435;SDS011;12616;52.470;13.436;2023-07-16T06:45:43;4.63;;;4.23;;
24435;SDS011;12616;52.470;13.436;2023-07-16T06:48:10;4.60;;;4.17;;
24435;SDS011;12616;52.470;13.436;2023-07-16T06:50:37;5.40;;;4.23;;
24435;SDS011;12616;52.470;13.436;2023-07-16T06:53:04;4.40;;;4.00;;
24435;SDS011;12616;52.470;13.436;2023-07-16T06:55:35;5.30;;;4.13;;
24435;SDS011;12616;52.470;13.436;2023-07-16T06:58:02;4.03;;;3.73;;
24435;SDS011;12616;52.470;13.436;2023-07-16T07:00:30;6.13;;;4.63;;
24435;SDS011;12616;52.470;13.436;2023-07-16T07:02:58;5.30;;;4.80;;
24435;SDS011;12616;52.470;13.436;2023-07-16T07:05:24;9.30;;;8.37;;
24435;SDS011;12616;52.470;13.436;2023-07-16T07:07:51;5.10;;;4.70;;
24435;SDS011;12616;52.470;13.436;2023-07-16T07:10:18;4.87;;;4.37;;
24435;SDS011;12616;52.470;13.436;2023-07-16T07:12:47;4.73;;;4.33;;
24435;SDS011;12616;52.470;13.436;2023-07-16T07:15:14;4.67;;;3.70;;
24435;SDS011;12616;52.470;13.436;2023-07-16T07:17:41;3.50;;;3.30;;
24435;SDS011;12616;52.470;13.436;2023-07-16T07:20:12;3.77;;;3.47;;
24435;SDS011;12616;52.470;13.436;2023-07-16T07:22:39;5.10;;;4.53;;
24435;SDS011;12616;52.470;13.436;2023-07-16T07:25:06;4.10;;;3.70;;
24435;SDS011;12616;52.470;13.436;2023-07-16T07:27:33;3.67;;;3.47;;
24435;SDS011;12616;52.470;13.436;2023-07-16T07:30:03;4.63;;;4.10;;
24435;SDS011;12616;52.470;13.436;2023-07-16T07:32:31;4.00;;;3.73;;
24435;SDS011;12616;52.470;13.436;2023-07-16T07:34:58;3.53;;;3.23;;
24435;SDS011;12616;52.470;13.436;2023-07-16T07:37:25;4.00;;;3.70;;
24435;SDS011;12616;52.470;13.436;2023-07-16T07:39:52;3.70;;;3.40;;
24435;SDS011;12616;52.470;13.436;2023-07-16T07:42:19;4.27;;;3.90;;
24435;SDS011;12616;52.470;13.436;2023-07-16T07:44:47;4.23;;;3.83;;
24435;SDS011;12616;52.470;13.436;2023-07-16T07:47:15;6.10;;;4.00;;
24435;SDS011;12616;52.470;13.436;2023-07-16T07:49:42;4.50;;;4.10;;
24435;SDS011;12616;52.470;13.436;2023-07-16T07:52:09;6.43;;;4.67;;
24435;SDS011;12616;52.470;13.436;2023-07-16T07:54:36;3.73;;;3.43;;
24435;SDS011;12616;52.470;13.436;2023-07-16T07:57:04;3.50;;;3.30;;
24435;SDS011;12616;52.470;13.436;2023-07-16T07:59:31;4.17;;;3.77;;
24435;SDS011;12616;52.470;13.436;2023-07-16T08:01:58;4.73;;;4.33;;
24435;SDS011;12616;52.470;13.436;2023-07-16T08:04:28;3.47;;;3.17;;
24435;SDS011;12616;52.470;13.436;2023-07-16T08:06:56;6.23;;;4.67;;
24435;SDS011;12616;52.470;13.436;2023-07-16T08:09:25;3.90;;;3.60;;
24435;SDS011;12616;52.470;13.436;2023-07-16T08:11:52;4.43;;;3.30;;
24435;SDS011;12616;52.470;13.436;2023-07-16T08:14:20;3.90;;;3.50;;
24435;SDS011;12616;52.470;13.436;2023-07-16T08:16:46;3.73;;;3.43;;
24435;SDS011;12616;52.470;13.436;2023-07-16T08:19:13;4.30;;;3.90;;
24435;SDS011;12616;52.470;13.436;2023-07-16T08:21:43;5.50;;;3.70;;
24435;SDS011;12616;52.470;13.436;2023-07-16T08:24:10;3.23;;;2.93;;
24435;SDS011;12616;52.470;13.436;2023-07-16T08:26:37;3.07;;;2.77;;
24435;SDS011;12616;52.470;13.436;2023-07-16T08:29:04;4.53;;;2.77;;
24435;SDS011;12616;52.470;13.436;2023-07-16T08:31:31;3.60;;;3.20;;
24435;SDS011;12616;52.470;13.436;2023-07-16T08:33:58;5.13;;;2.97;;
24435;SDS011;12616;52.470;13.436;2023-07-16T08:36:25;2.77;;;2.63;;
24435;SDS011;12616;52.470;13.436;2023-07-16T08:38:54;3.10;;;2.70;;
24435;SDS011;12616;52.470;13.436;2023-07-16T18:56:56;4.10;;;3.27;;
24435;SDS011;12616;52.470;13.436;2023-07-16T18:59:23;3.20;;;2.90;;
24435;SDS011;12616;52.470;13.436;2023-07-16T19:01:50;12.27;;;3.87;;
24435;SDS011;12616;52.470;13.436;2023-07-16T19:04:17;5.33;;;2.70;;
24435;SDS011;12616;52.470;13.436;2023-07-16T19:06:44;8.30;;;3.80;;
24435;SDS011;12616;52.470;13.436;2023-07-16T19:09:11;4.30;;;3.17;;
24435;SDS011;12616;52.470;13.436;2023-07-16T19:11:38;5.57;;;4.23;;
24435;SDS011;12616;52.470;13.436;2023-07-16T19:14:08;5.17;;;3.77;;
24435;SDS011;12616;52.470;13.436;2023-07-16T19:16:36;3.80;;;2.90;;
24435;SDS011;12616;52.470;13.436;2023-07-16T19:19:04;4.73;;;3.90;;
24435;SDS011;12616;52.470;13.436;2023-07-16T19:21:32;3.87;;;3.50;;
24435;SDS011;12616;52.470;13.436;2023-07-16T19:23:59;3.50;;;3.20;;
24435;SDS011;12616;52.470;13.436;2023-07-16T19:26:27;4.67;;;4.20;;
24435;SDS011;12616;52.470;13.436;2023-07-16T19:28:57;8.73;;;7.37;;
24435;SDS011;12616;52.470;13.436;2023-07-16T19:31:26;7.93;;;4.97;;
24435;SDS011;12616;52.470;13.436;2023-07-16T19:33:53;6.50;;;4.03;;
24435;SDS011;12616;52.470;13.436;2023-07-16T19:36:20;7.57;;;6.23;;
24435;SDS011;12616;52.470;13.436;2023-07-16T19:38:48;5.50;;;5.10;;
24435;SDS011;12616;52.470;13.436;2023-07-16T21:27:38;8.60;;;5.60;;
24435;SDS011;12616;52.470;13.436;2023-07-16T21:30:28;6.37;;;5.77;;
24435;SDS011;12616;52.470;13.436;2023-07-16T21:38:52;8.80;;;6.73;;
24435;SDS011;12616;52.470;13.436;2023-07-16T21:42:27;7.17;;;6.43;;
24435;SDS011;12616;52.470;13.436;2023-07-16T21:49:02;8.33;;;6.20;;
24435;SDS011;12616;52.470;13.436;2023-07-16T21:51:29;7.57;;;6.20;;
24435;SDS011;12616;52.470;13.436;2023-07-16T21:53:56;7.27;;;6.57;;
24435;SDS011;12616;52.470;13.436;2023-07-16T21:56:24;7.30;;;6.57;;
24435;SDS011;12616;52.470;13.436;2023-07-16T21:58:51;8.13;;;6.93;;
24435;SDS011;12616;52.470;13.436;2023-07-16T22:01:20;7.73;;;6.60;;
24435;SDS011;12616;52.470;13.436;2023-07-16T22:03:53;9.30;;;6.53;;
24435;SDS011;12616;52.470;13.436;2023-07-16T22:06:26;6.20;;;5.57;;
24435;SDS011;12616;52.470;13.436;2023-07-16T22:08:59;9.13;;;6.77;;
24435;SDS011;12616;52.470;13.436;2023-07-16T22:11:33;9.03;;;7.07;;
24435;SDS011;12616;52.470;13.436;2023-07-16T22:14:03;6.60;;;5.80;;
24435;SDS011;12616;52.470;13.436;2023-07-16T22:16:32;7.70;;;4.80;;
24435;SDS011;12616;52.470;13.436;2023-07-16T22:19:01;6.40;;;5.30;;
24435;SDS011;12616;52.470;13.436;2023-07-16T22:21:43;5.87;;;5.00;;
24435;SDS011;12616;52.470;13.436;2023-07-16T22:24:20;5.37;;;4.63;;
24435;SDS011;12616;52.470;13.436;2023-07-16T22:49:03;7.10;;;5.27;;
24435;SDS011;12616;52.470;13.436;2023-07-16T22:54:57;8.63;;;5.00;;
24435;SDS011;12616;52.470;13.436;2023-07-16T22:57:36;10.30;;;7.40;;
